aviador You're here:

KACV Decoded Metar

ARCATA/EUREKA in CA, USA
Report Time2018-05-23 19:53:00
UTC Time2018-05-23 20:44:12
Flight Rules mvfr MVFR
Wind280° at 07 kt
W.Decomp.*RWY 32: 3.8 kt HW 5.9 kt LCW
RWY 19: 2.0 kt HW 6.7 kt RCW
W.Rank280° ranks 19
Current wind is above 280° avg. (5.2)
Visibility9999 m
Phenomena:N/A
Clouds:Overcast 022 Hf
Expected CloudBase > 2,000 ft AGL from Temp-Dew spread
Ceiling2,200 ft
Temp15°C (ISA 0)
Dew Point10°C (72% RH)
AAT12.5°C
QNH1014 hPa
Density Alt404 ft
Elevation220 ft
Report Wrong Elevation
Raw Report
KACV 231953Z AUTO 28007KT 10SM OVC022 15/10 A2993 RMK AO2 SLP141
T01500100=

Extra information for KACV:More info

Metar Taf Metar & Taf Last 4 Metars F.Rules Stats Wind Profile Meteogram Temp Stats Airport Information Weather charts Add Link Nearby VenuesMetar ALERT Operation Metar Decoded Social comments

AIRNAV info for KACV